sensor_id;sensor_type;location;lat;lon;timestamp;P1;durP1;ratioP1;P2;durP2;ratioP2
8171;SDS011;4127;47.908;10.850;2022-08-27T00:00:31;2.10;;;1.90;;
8171;SDS011;4127;47.908;10.850;2022-08-27T00:02:58;2.50;;;2.00;;
8171;SDS011;4127;47.908;10.850;2022-08-27T00:05:25;2.43;;;2.00;;
8171;SDS011;4127;47.908;10.850;2022-08-27T00:07:51;2.30;;;2.10;;
8171;SDS011;4127;47.908;10.850;2022-08-27T00:10:21;2.40;;;2.20;;
8171;SDS011;4127;47.908;10.850;2022-08-27T00:12:50;2.60;;;2.00;;
8171;SDS011;4127;47.908;10.850;2022-08-27T00:15:17;2.40;;;2.20;;
8171;SDS011;4127;47.908;10.850;2022-08-27T00:17:44;2.33;;;2.13;;
8171;SDS011;4127;47.908;10.850;2022-08-27T00:20:13;2.30;;;2.10;;
8171;SDS011;4127;47.908;10.850;2022-08-27T00:22:42;2.40;;;2.20;;
8171;SDS011;4127;47.908;10.850;2022-08-27T00:25:09;1.97;;;1.87;;
8171;SDS011;4127;47.908;10.850;2022-08-27T00:27:37;2.00;;;1.80;;
8171;SDS011;4127;47.908;10.850;2022-08-27T00:30:05;2.20;;;2.10;;
8171;SDS011;4127;47.908;10.850;2022-08-27T00:32:35;2.20;;;2.10;;
8171;SDS011;4127;47.908;10.850;2022-08-27T00:35:03;2.63;;;2.00;;
8171;SDS011;4127;47.908;10.850;2022-08-27T00:37:31;1.80;;;1.70;;
8171;SDS011;4127;47.908;10.850;2022-08-27T00:39:58;2.40;;;2.20;;
8171;SDS011;4127;47.908;10.850;2022-08-27T00:42:25;2.07;;;1.93;;
8171;SDS011;4127;47.908;10.850;2022-08-27T00:44:56;2.10;;;2.00;;
8171;SDS011;4127;47.908;10.850;2022-08-27T00:47:24;1.90;;;1.80;;
8171;SDS011;4127;47.908;10.850;2022-08-27T00:50:00;1.90;;;1.80;;
8171;SDS011;4127;47.908;10.850;2022-08-27T00:52:31;1.90;;;1.80;;
8171;SDS011;4127;47.908;10.850;2022-08-27T00:55:08;2.00;;;1.90;;
8171;SDS011;4127;47.908;10.850;2022-08-27T00:57:39;2.30;;;2.10;;
8171;SDS011;4127;47.908;10.850;2022-08-27T01:00:09;2.73;;;2.40;;
8171;SDS011;4127;47.908;10.850;2022-08-27T01:02:38;1.90;;;1.80;;
8171;SDS011;4127;47.908;10.850;2022-08-27T01:05:08;2.47;;;2.00;;
8171;SDS011;4127;47.908;10.850;2022-08-27T01:07:38;2.03;;;1.93;;
8171;SDS011;4127;47.908;10.850;2022-08-27T01:10:10;2.10;;;1.90;;
8171;SDS011;4127;47.908;10.850;2022-08-27T01:12:38;2.10;;;2.00;;
8171;SDS011;4127;47.908;10.850;2022-08-27T01:15:07;1.90;;;1.80;;
8171;SDS011;4127;47.908;10.850;2022-08-27T01:17:40;2.27;;;1.90;;
8171;SDS011;4127;47.908;10.850;2022-08-27T01:20:10;2.20;;;2.10;;
8171;SDS011;4127;47.908;10.850;2022-08-27T01:23:10;2.07;;;1.97;;
8171;SDS011;4127;47.908;10.850;2022-08-27T01:25:48;2.20;;;2.10;;
8171;SDS011;4127;47.908;10.850;2022-08-27T01:28:15;2.00;;;1.80;;
8171;SDS011;4127;47.908;10.850;2022-08-27T01:30:48;2.03;;;1.93;;
8171;SDS011;4127;47.908;10.850;2022-08-27T01:33:17;2.00;;;1.90;;
8171;SDS011;4127;47.908;10.850;2022-08-27T01:35:47;1.90;;;1.80;;
8171;SDS011;4127;47.908;10.850;2022-08-27T01:38:16;2.20;;;2.00;;
8171;SDS011;4127;47.908;10.850;2022-08-27T01:40:56;1.80;;;1.70;;
8171;SDS011;4127;47.908;10.850;2022-08-27T01:43:26;2.00;;;1.90;;
8171;SDS011;4127;47.908;10.850;2022-08-27T01:45:54;1.87;;;1.77;;
8171;SDS011;4127;47.908;10.850;2022-08-27T01:48:21;2.00;;;1.83;;
8171;SDS011;4127;47.908;10.850;2022-08-27T01:50:48;2.27;;;2.07;;
8171;SDS011;4127;47.908;10.850;2022-08-27T01:53:18;2.00;;;1.90;;
8171;SDS011;4127;47.908;10.850;2022-08-27T01:55:48;2.10;;;2.00;;
8171;SDS011;4127;47.908;10.850;2022-08-27T01:58:17;2.10;;;2.00;;
8171;SDS011;4127;47.908;10.850;2022-08-27T02:00:56;1.90;;;1.80;;
8171;SDS011;4127;47.908;10.850;2022-08-27T02:03:25;2.00;;;1.90;;
8171;SDS011;4127;47.908;10.850;2022-08-27T02:05:52;2.20;;;2.10;;
8171;SDS011;4127;47.908;10.850;2022-08-27T02:08:19;2.10;;;2.00;;
8171;SDS011;4127;47.908;10.850;2022-08-27T02:10:47;1.97;;;1.77;;
8171;SDS011;4127;47.908;10.850;2022-08-27T02:13:15;1.90;;;1.80;;
8171;SDS011;4127;47.908;10.850;2022-08-27T02:15:42;2.67;;;2.47;;
8171;SDS011;4127;47.908;10.850;2022-08-27T02:18:09;2.00;;;1.90;;
8171;SDS011;4127;47.908;10.850;2022-08-27T02:20:37;2.10;;;1.90;;
8171;SDS011;4127;47.908;10.850;2022-08-27T02:23:04;2.63;;;1.90;;
8171;SDS011;4127;47.908;10.850;2022-08-27T02:25:31;1.80;;;1.70;;
8171;SDS011;4127;47.908;10.850;2022-08-27T02:27:58;2.00;;;1.90;;
8171;SDS011;4127;47.908;10.850;2022-08-27T02:30:26;1.90;;;1.80;;
8171;SDS011;4127;47.908;10.850;2022-08-27T02:32:54;2.13;;;1.70;;
8171;SDS011;4127;47.908;10.850;2022-08-27T02:35:22;2.23;;;2.13;;
8171;SDS011;4127;47.908;10.850;2022-08-27T02:37:49;2.20;;;2.10;;
8171;SDS011;4127;47.908;10.850;2022-08-27T02:40:18;2.20;;;2.00;;
8171;SDS011;4127;47.908;10.850;2022-08-27T02:42:47;2.17;;;2.07;;
8171;SDS011;4127;47.908;10.850;2022-08-27T02:45:15;2.27;;;2.10;;
8171;SDS011;4127;47.908;10.850;2022-08-27T02:47:42;1.63;;;1.53;;
8171;SDS011;4127;47.908;10.850;2022-08-27T02:50:10;2.00;;;1.90;;
8171;SDS011;4127;47.908;10.850;2022-08-27T02:52:39;2.13;;;1.90;;
8171;SDS011;4127;47.908;10.850;2022-08-27T02:55:06;2.10;;;2.00;;
8171;SDS011;4127;47.908;10.850;2022-08-27T02:57:33;2.10;;;1.80;;
8171;SDS011;4127;47.908;10.850;2022-08-27T03:00:04;2.37;;;2.20;;
8171;SDS011;4127;47.908;10.850;2022-08-27T03:02:34;1.80;;;1.70;;
8171;SDS011;4127;47.908;10.850;2022-08-27T03:05:01;2.23;;;2.03;;
8171;SDS011;4127;47.908;10.850;2022-08-27T03:07:28;2.30;;;2.10;;
8171;SDS011;4127;47.908;10.850;2022-08-27T03:09:55;2.90;;;2.63;;
8171;SDS011;4127;47.908;10.850;2022-08-27T03:12:21;2.97;;;2.30;;
8171;SDS011;4127;47.908;10.850;2022-08-27T03:14:50;2.40;;;2.27;;
8171;SDS011;4127;47.908;10.850;2022-08-27T03:17:17;2.57;;;2.37;;
8171;SDS011;4127;47.908;10.850;2022-08-27T03:20:02;2.00;;;1.90;;
8171;SDS011;4127;47.908;10.850;2022-08-27T03:22:31;2.10;;;2.00;;
8171;SDS011;4127;47.908;10.850;2022-08-27T03:24:57;2.60;;;2.40;;
8171;SDS011;4127;47.908;10.850;2022-08-27T03:27:26;2.20;;;2.00;;
8171;SDS011;4127;47.908;10.850;2022-08-27T03:29:53;2.20;;;2.10;;
8171;SDS011;4127;47.908;10.850;2022-08-27T03:32:20;2.50;;;2.30;;
8171;SDS011;4127;47.908;10.850;2022-08-27T03:34:46;2.50;;;2.30;;
8171;SDS011;4127;47.908;10.850;2022-08-27T03:37:13;2.77;;;2.57;;
8171;SDS011;4127;47.908;10.850;2022-08-27T03:39:40;2.77;;;2.57;;
8171;SDS011;4127;47.908;10.850;2022-08-27T03:42:07;2.37;;;2.23;;
8171;SDS011;4127;47.908;10.850;2022-08-27T03:44:33;2.47;;;2.20;;
8171;SDS011;4127;47.908;10.850;2022-08-27T03:47:00;2.70;;;2.50;;
8171;SDS011;4127;47.908;10.850;2022-08-27T03:49:27;2.70;;;2.50;;
8171;SDS011;4127;47.908;10.850;2022-08-27T03:51:54;2.70;;;2.50;;
8171;SDS011;4127;47.908;10.850;2022-08-27T03:54:20;2.70;;;2.50;;
8171;SDS011;4127;47.908;10.850;2022-08-27T03:56:47;3.10;;;2.80;;
8171;SDS011;4127;47.908;10.850;2022-08-27T03:59:14;2.93;;;2.57;;
8171;SDS011;4127;47.908;10.850;2022-08-27T04:01:41;2.47;;;2.27;;
8171;SDS011;4127;47.908;10.850;2022-08-27T04:04:09;2.73;;;2.53;;
8171;SDS011;4127;47.908;10.850;2022-08-27T04:06:38;2.30;;;2.10;;
8171;SDS011;4127;47.908;10.850;2022-08-27T04:09:05;2.90;;;2.70;;
8171;SDS011;4127;47.908;10.850;2022-08-27T04:11:32;2.80;;;2.60;;
8171;SDS011;4127;47.908;10.850;2022-08-27T04:14:02;4.23;;;2.80;;
8171;SDS011;4127;47.908;10.850;2022-08-27T04:16:50;2.90;;;2.70;;
8171;SDS011;4127;47.908;10.850;2022-08-27T04:19:17;2.90;;;2.60;;
8171;SDS011;4127;47.908;10.850;2022-08-27T04:21:47;3.33;;;3.03;;
8171;SDS011;4127;47.908;10.850;2022-08-27T04:24:14;3.47;;;3.17;;
8171;SDS011;4127;47.908;10.850;2022-08-27T04:26:41;2.90;;;2.70;;
8171;SDS011;4127;47.908;10.850;2022-08-27T04:29:10;3.20;;;2.90;;
8171;SDS011;4127;47.908;10.850;2022-08-27T04:31:37;3.17;;;2.90;;
8171;SDS011;4127;47.908;10.850;2022-08-27T04:34:04;3.10;;;2.80;;
8171;SDS011;4127;47.908;10.850;2022-08-27T04:36:32;2.80;;;2.60;;
8171;SDS011;4127;47.908;10.850;2022-08-27T04:38:59;2.73;;;2.53;;
8171;SDS011;4127;47.908;10.850;2022-08-27T04:41:26;3.00;;;2.80;;
8171;SDS011;4127;47.908;10.850;2022-08-27T04:43:55;3.20;;;3.00;;
8171;SDS011;4127;47.908;10.850;2022-08-27T04:46:27;3.80;;;3.50;;
8171;SDS011;4127;47.908;10.850;2022-08-27T04:48:56;3.23;;;3.03;;
8171;SDS011;4127;47.908;10.850;2022-08-27T04:51:25;3.40;;;3.10;;
8171;SDS011;4127;47.908;10.850;2022-08-27T04:53:54;3.30;;;3.10;;
8171;SDS011;4127;47.908;10.850;2022-08-27T04:56:26;3.77;;;3.47;;
8171;SDS011;4127;47.908;10.850;2022-08-27T04:58:53;3.13;;;2.93;;
8171;SDS011;4127;47.908;10.850;2022-08-27T05:01:24;3.90;;;3.60;;
8171;SDS011;4127;47.908;10.850;2022-08-27T05:03:53;3.80;;;3.50;;
8171;SDS011;4127;47.908;10.850;2022-08-27T05:06:20;3.47;;;3.23;;
8171;SDS011;4127;47.908;10.850;2022-08-27T05:08:48;3.20;;;3.00;;
8171;SDS011;4127;47.908;10.850;2022-08-27T05:11:17;3.57;;;3.27;;
8171;SDS011;4127;47.908;10.850;2022-08-27T05:13:46;3.90;;;3.60;;
8171;SDS011;4127;47.908;10.850;2022-08-27T05:16:14;4.00;;;3.70;;
8171;SDS011;4127;47.908;10.850;2022-08-27T05:18:46;4.00;;;3.70;;
8171;SDS011;4127;47.908;10.850;2022-08-27T05:21:24;4.40;;;4.00;;
8171;SDS011;4127;47.908;10.850;2022-08-27T05:23:53;4.00;;;3.60;;
8171;SDS011;4127;47.908;10.850;2022-08-27T05:26:21;4.43;;;4.13;;
8171;SDS011;4127;47.908;10.850;2022-08-27T05:28:48;3.90;;;3.60;;
8171;SDS011;4127;47.908;10.850;2022-08-27T05:31:18;4.37;;;4.07;;
8171;SDS011;4127;47.908;10.850;2022-08-27T05:33:46;4.53;;;4.17;;
8171;SDS011;4127;47.908;10.850;2022-08-27T05:36:14;4.50;;;3.93;;
8171;SDS011;4127;47.908;10.850;2022-08-27T05:38:43;3.57;;;3.37;;
8171;SDS011;4127;47.908;10.850;2022-08-27T05:41:12;4.03;;;3.73;;
8171;SDS011;4127;47.908;10.850;2022-08-27T05:43:40;4.57;;;4.17;;
8171;SDS011;4127;47.908;10.850;2022-08-27T05:46:15;4.03;;;3.73;;
8171;SDS011;4127;47.908;10.850;2022-08-27T05:48:43;3.73;;;3.43;;
8171;SDS011;4127;47.908;10.850;2022-08-27T05:51:12;4.07;;;3.77;;
8171;SDS011;4127;47.908;10.850;2022-08-27T05:53:45;4.03;;;3.73;;
8171;SDS011;4127;47.908;10.850;2022-08-27T05:56:19;4.33;;;3.93;;
8171;SDS011;4127;47.908;10.850;2022-08-27T05:58:47;4.40;;;4.10;;
8171;SDS011;4127;47.908;10.850;2022-08-27T06:01:35;4.30;;;4.00;;
8171;SDS011;4127;47.908;10.850;2022-08-27T06:04:07;3.90;;;3.60;;
8171;SDS011;4127;47.908;10.850;2022-08-27T06:06:36;4.00;;;3.70;;
8171;SDS011;4127;47.908;10.850;2022-08-27T06:09:05;3.93;;;3.63;;
8171;SDS011;4127;47.908;10.850;2022-08-27T06:11:33;3.73;;;3.43;;
8171;SDS011;4127;47.908;10.850;2022-08-27T06:14:00;3.93;;;3.57;;
8171;SDS011;4127;47.908;10.850;2022-08-27T06:16:27;4.43;;;4.10;;
8171;SDS011;4127;47.908;10.850;2022-08-27T06:18:54;4.47;;;4.10;;
8171;SDS011;4127;47.908;10.850;2022-08-27T06:21:22;3.90;;;3.60;;
8171;SDS011;4127;47.908;10.850;2022-08-27T06:23:50;4.47;;;4.10;;
8171;SDS011;4127;47.908;10.850;2022-08-27T06:26:18;4.87;;;4.47;;
8171;SDS011;4127;47.908;10.850;2022-08-27T06:28:47;5.13;;;4.73;;
8171;SDS011;4127;47.908;10.850;2022-08-27T06:33:48;5.03;;;4.63;;
8171;SDS011;4127;47.908;10.850;2022-08-27T06:36:19;5.37;;;4.87;;
8171;SDS011;4127;47.908;10.850;2022-08-27T06:38:50;5.47;;;4.97;;
8171;SDS011;4127;47.908;10.850;2022-08-27T06:41:20;5.00;;;4.60;;
8171;SDS011;4127;47.908;10.850;2022-08-27T06:43:49;5.07;;;4.57;;
8171;SDS011;4127;47.908;10.850;2022-08-27T06:46:17;4.97;;;4.07;;
8171;SDS011;4127;47.908;10.850;2022-08-27T06:48:51;5.23;;;4.70;;
8171;SDS011;4127;47.908;10.850;2022-08-27T06:51:20;5.50;;;5.00;;
8171;SDS011;4127;47.908;10.850;2022-08-27T06:53:55;5.10;;;4.70;;
8171;SDS011;4127;47.908;10.850;2022-08-27T06:56:23;4.50;;;4.10;;
8171;SDS011;4127;47.908;10.850;2022-08-27T06:58:51;5.93;;;5.07;;
8171;SDS011;4127;47.908;10.850;2022-08-27T07:01:21;5.53;;;5.00;;
8171;SDS011;4127;47.908;10.850;2022-08-27T07:04:00;6.03;;;5.53;;
8171;SDS011;4127;47.908;10.850;2022-08-27T07:06:30;5.97;;;5.47;;
8171;SDS011;4127;47.908;10.850;2022-08-27T07:08:58;6.50;;;5.77;;
8171;SDS011;4127;47.908;10.850;2022-08-27T07:11:26;6.73;;;6.10;;
8171;SDS011;4127;47.908;10.850;2022-08-27T07:13:53;6.60;;;6.00;;
8171;SDS011;4127;47.908;10.850;2022-08-27T07:16:21;6.10;;;5.60;;
8171;SDS011;4127;47.908;10.850;2022-08-27T07:18:50;6.40;;;5.80;;
8171;SDS011;4127;47.908;10.850;2022-08-27T07:21:21;6.17;;;5.60;;
8171;SDS011;4127;47.908;10.850;2022-08-27T07:23:49;6.47;;;5.87;;
8171;SDS011;4127;47.908;10.850;2022-08-27T07:26:18;6.43;;;5.93;;
8171;SDS011;4127;47.908;10.850;2022-08-27T07:28:46;6.73;;;6.10;;
8171;SDS011;4127;47.908;10.850;2022-08-27T07:31:16;6.63;;;6.03;;
8171;SDS011;4127;47.908;10.850;2022-08-27T07:33:44;6.43;;;5.73;;
8171;SDS011;4127;47.908;10.850;2022-08-27T07:36:18;6.43;;;5.83;;
8171;SDS011;4127;47.908;10.850;2022-08-27T07:38:46;7.33;;;6.57;;
8171;SDS011;4127;47.908;10.850;2022-08-27T07:41:26;6.20;;;5.70;;
8171;SDS011;4127;47.908;10.850;2022-08-27T07:43:57;7.90;;;7.10;;
8171;SDS011;4127;47.908;10.850;2022-08-27T07:46:43;6.17;;;5.60;;
8171;SDS011;4127;47.908;10.850;2022-08-27T07:49:13;6.50;;;5.90;;
8171;SDS011;4127;47.908;10.850;2022-08-27T07:51:40;6.27;;;5.77;;
8171;SDS011;4127;47.908;10.850;2022-08-27T07:54:07;6.47;;;5.87;;
8171;SDS011;4127;47.908;10.850;2022-08-27T07:56:34;7.03;;;6.33;;
8171;SDS011;4127;47.908;10.850;2022-08-27T07:59:01;6.60;;;5.93;;
8171;SDS011;4127;47.908;10.850;2022-08-27T08:01:28;6.03;;;5.53;;
8171;SDS011;4127;47.908;10.850;2022-08-27T08:03:55;6.37;;;5.87;;
8171;SDS011;4127;47.908;10.850;2022-08-27T08:06:22;6.20;;;5.57;;
8171;SDS011;4127;47.908;10.850;2022-08-27T08:08:49;6.00;;;5.50;;
8171;SDS011;4127;47.908;10.850;2022-08-27T08:11:16;6.10;;;5.60;;
8171;SDS011;4127;47.908;10.850;2022-08-27T08:13:45;6.50;;;5.90;;
8171;SDS011;4127;47.908;10.850;2022-08-27T08:16:12;5.80;;;5.30;;
8171;SDS011;4127;47.908;10.850;2022-08-27T08:18:39;6.33;;;5.77;;
8171;SDS011;4127;47.908;10.850;2022-08-27T08:21:08;6.53;;;5.93;;
8171;SDS011;4127;47.908;10.850;2022-08-27T08:23:37;7.00;;;6.40;;
8171;SDS011;4127;47.908;10.850;2022-08-27T08:26:04;10.70;;;7.27;;
8171;SDS011;4127;47.908;10.850;2022-08-27T08:28:32;6.13;;;5.53;;
8171;SDS011;4127;47.908;10.850;2022-08-27T08:30:59;6.50;;;5.87;;
8171;SDS011;4127;47.908;10.850;2022-08-27T08:33:26;5.77;;;5.27;;
8171;SDS011;4127;47.908;10.850;2022-08-27T08:35:53;5.83;;;5.33;;
8171;SDS011;4127;47.908;10.850;2022-08-27T08:38:20;6.53;;;5.93;;
8171;SDS011;4127;47.908;10.850;2022-08-27T08:40:48;6.30;;;5.70;;
8171;SDS011;4127;47.908;10.850;2022-08-27T08:45:55;7.30;;;6.70;;
8171;SDS011;4127;47.908;10.850;2022-08-27T08:48:28;6.60;;;6.00;;
8171;SDS011;4127;47.908;10.850;2022-08-27T08:51:01;6.00;;;5.50;;
8171;SDS011;4127;47.908;10.850;2022-08-27T08:53:52;6.57;;;5.97;;
8171;SDS011;4127;47.908;10.850;2022-08-27T08:56:33;6.13;;;5.63;;
8171;SDS011;4127;47.908;10.850;2022-08-27T08:59:22;5.57;;;5.07;;
8171;SDS011;4127;47.908;10.850;2022-08-27T09:01:55;5.80;;;5.30;;
8171;SDS011;4127;47.908;10.850;2022-08-27T09:04:24;4.85;;;4.45;;
8171;SDS011;4127;47.908;10.850;2022-08-27T09:06:53;5.00;;;4.60;;
8171;SDS011;4127;47.908;10.850;2022-08-27T09:09:46;4.05;;;3.75;;
8171;SDS011;4127;47.908;10.850;2022-08-27T09:12:35;4.40;;;4.00;;
8171;SDS011;4127;47.908;10.850;2022-08-27T09:15:10;6.15;;;5.65;;
8171;SDS011;4127;47.908;10.850;2022-08-27T09:17:38;6.88;;;5.88;;
8171;SDS011;4127;47.908;10.850;2022-08-27T09:20:08;6.78;;;6.18;;
8171;SDS011;4127;47.908;10.850;2022-08-27T09:25:27;6.25;;;5.75;;
8171;SDS011;4127;47.908;10.850;2022-08-27T09:28:00;6.38;;;5.78;;
8171;SDS011;4127;47.908;10.850;2022-08-27T09:30:39;6.70;;;6.10;;
8171;SDS011;4127;47.908;10.850;2022-08-27T09:33:07;8.02;;;7.22;;
8171;SDS011;4127;47.908;10.850;2022-08-27T09:35:42;7.93;;;7.17;;
8171;SDS011;4127;47.908;10.850;2022-08-27T09:38:16;7.70;;;7.00;;
8171;SDS011;4127;47.908;10.850;2022-08-27T09:40:55;8.30;;;7.50;;
8171;SDS011;4127;47.908;10.850;2022-08-27T09:43:27;7.93;;;7.23;;
8171;SDS011;4127;47.908;10.850;2022-08-27T09:45:57;8.03;;;7.23;;
8171;SDS011;4127;47.908;10.850;2022-08-27T09:48:33;9.00;;;8.10;;
8171;SDS011;4127;47.908;10.850;2022-08-27T09:51:05;8.33;;;7.53;;
8171;SDS011;4127;47.908;10.850;2022-08-27T09:53:46;8.13;;;7.33;;
8171;SDS011;4127;47.908;10.850;2022-08-27T09:56:29;9.60;;;8.80;;
8171;SDS011;4127;47.908;10.850;2022-08-27T10:01:50;8.77;;;7.97;;
8171;SDS011;4127;47.908;10.850;2022-08-27T10:04:23;8.50;;;7.80;;
8171;SDS011;4127;47.908;10.850;2022-08-27T10:06:53;9.10;;;8.20;;
8171;SDS011;4127;47.908;10.850;2022-08-27T10:09:30;9.63;;;8.73;;
8171;SDS011;4127;47.908;10.850;2022-08-27T10:12:11;8.47;;;7.77;;
8171;SDS011;4127;47.908;10.850;2022-08-27T10:14:47;9.10;;;8.30;;
8171;SDS011;4127;47.908;10.850;2022-08-27T10:17:22;8.87;;;7.97;;
8171;SDS011;4127;47.908;10.850;2022-08-27T10:20:11;9.37;;;8.37;;
8171;SDS011;4127;47.908;10.850;2022-08-27T10:25:44;9.37;;;8.47;;
8171;SDS011;4127;47.908;10.850;2022-08-27T10:36:58;8.80;;;8.00;;
8171;SDS011;4127;47.908;10.850;2022-08-27T10:42:13;9.27;;;8.37;;
8171;SDS011;4127;47.908;10.850;2022-08-27T10:44:52;7.90;;;7.17;;
8171;SDS011;4127;47.908;10.850;2022-08-27T10:47:45;9.10;;;8.30;;
8171;SDS011;4127;47.908;10.850;2022-08-27T10:50:28;8.20;;;7.40;;
8171;SDS011;4127;47.908;10.850;2022-08-27T10:53:16;7.57;;;6.87;;
8171;SDS011;4127;47.908;10.850;2022-08-27T10:55:48;9.07;;;8.10;;
8171;SDS011;4127;47.908;10.850;2022-08-27T10:58:21;9.60;;;8.60;;
8171;SDS011;4127;47.908;10.850;2022-08-27T11:03:48;8.73;;;7.83;;
8171;SDS011;4127;47.908;10.850;2022-08-27T11:06:40;7.57;;;6.97;;
8171;SDS011;4127;47.908;10.850;2022-08-27T11:09:16;7.83;;;7.13;;
8171;SDS011;4127;47.908;10.850;2022-08-27T11:12:06;8.15;;;7.45;;
8171;SDS011;4127;47.908;10.850;2022-08-27T11:17:51;9.30;;;8.50;;
8171;SDS011;4127;47.908;10.850;2022-08-27T11:20:27;8.15;;;7.45;;
8171;SDS011;4127;47.908;10.850;2022-08-27T11:23:00;9.15;;;8.25;;
8171;SDS011;4127;47.908;10.850;2022-08-27T11:28:36;8.40;;;7.60;;
8171;SDS011;4127;47.908;10.850;2022-08-27T11:45:30;8.95;;;7.40;;
8171;SDS011;4127;47.908;10.850;2022-08-27T11:53:26;8.38;;;7.57;;
8171;SDS011;4127;47.908;10.850;2022-08-27T11:59:17;7.07;;;6.38;;
8171;SDS011;4127;47.908;10.850;2022-08-27T12:01:48;8.30;;;7.47;;
8171;SDS011;4127;47.908;10.850;2022-08-27T12:04:22;7.97;;;7.18;;
8171;SDS011;4127;47.908;10.850;2022-08-27T12:07:04;9.15;;;7.30;;
8171;SDS011;4127;47.908;10.850;2022-08-27T12:15:10;7.45;;;6.82;;
8171;SDS011;4127;47.908;10.850;2022-08-27T12:17:55;7.82;;;7.22;;
8171;SDS011;4127;47.908;10.850;2022-08-27T12:20:44;7.50;;;6.85;;
8171;SDS011;4127;47.908;10.850;2022-08-27T12:28:40;7.45;;;6.68;;
8171;SDS011;4127;47.908;10.850;2022-08-27T12:31:07;7.13;;;6.43;;
8171;SDS011;4127;47.908;10.850;2022-08-27T12:33:42;7.95;;;7.25;;
8171;SDS011;4127;47.908;10.850;2022-08-27T12:36:16;8.02;;;7.32;;
8171;SDS011;4127;47.908;10.850;2022-08-27T12:38:55;6.63;;;6.03;;
8171;SDS011;4127;47.908;10.850;2022-08-27T12:41:28;7.28;;;6.63;;
8171;SDS011;4127;47.908;10.850;2022-08-27T12:44:11;7.15;;;6.45;;
8171;SDS011;4127;47.908;10.850;2022-08-27T12:46:50;7.82;;;7.03;;
8171;SDS011;4127;47.908;10.850;2022-08-27T12:49:30;7.10;;;6.50;;
8171;SDS011;4127;47.908;10.850;2022-08-27T12:58:05;6.57;;;5.97;;
8171;SDS011;4127;47.908;10.850;2022-08-27T13:03:39;7.75;;;7.10;;
8171;SDS011;4127;47.908;10.850;2022-08-27T13:06:18;7.95;;;7.22;;
8171;SDS011;4127;47.908;10.850;2022-08-27T13:08:52;7.05;;;6.45;;
8171;SDS011;4127;47.908;10.850;2022-08-27T13:11:21;7.25;;;6.65;;
8171;SDS011;4127;47.908;10.850;2022-08-27T13:13:50;7.20;;;6.60;;
8171;SDS011;4127;47.908;10.850;2022-08-27T13:16:18;7.72;;;7.10;;
8171;SDS011;4127;47.908;10.850;2022-08-27T13:18:47;6.88;;;6.30;;
8171;SDS011;4127;47.908;10.850;2022-08-27T13:21:21;7.75;;;6.95;;
8171;SDS011;4127;47.908;10.850;2022-08-27T13:23:57;8.63;;;6.32;;
8171;SDS011;4127;47.908;10.850;2022-08-27T13:26:27;6.47;;;5.88;;
8171;SDS011;4127;47.908;10.850;2022-08-27T13:28:59;6.10;;;5.50;;
8171;SDS011;4127;47.908;10.850;2022-08-27T13:31:29;6.95;;;6.35;;
8171;SDS011;4127;47.908;10.850;2022-08-27T13:33:57;6.72;;;6.03;;
8171;SDS011;4127;47.908;10.850;2022-08-27T13:36:29;6.60;;;5.90;;
8171;SDS011;4127;47.908;10.850;2022-08-27T13:38:58;5.97;;;5.38;;
8171;SDS011;4127;47.908;10.850;2022-08-27T13:44:32;5.50;;;5.00;;
8171;SDS011;4127;47.908;10.850;2022-08-27T13:49:33;5.47;;;4.75;;
8171;SDS011;4127;47.908;10.850;2022-08-27T13:52:15;5.35;;;4.90;;
8171;SDS011;4127;47.908;10.850;2022-08-27T13:54:56;5.13;;;4.65;;
8171;SDS011;4127;47.908;10.850;2022-08-27T13:57:38;5.78;;;5.28;;
8171;SDS011;4127;47.908;10.850;2022-08-27T14:02:54;6.47;;;5.28;;
8171;SDS011;4127;47.908;10.850;2022-08-27T14:07:53;4.65;;;4.22;;
8171;SDS011;4127;47.908;10.850;2022-08-27T14:13:06;3.88;;;3.58;;
8171;SDS011;4127;47.908;10.850;2022-08-27T14:15:45;3.60;;;3.15;;
8171;SDS011;4127;47.908;10.850;2022-08-27T14:18:22;3.80;;;3.50;;
8171;SDS011;4127;47.908;10.850;2022-08-27T14:21:19;4.65;;;4.25;;
8171;SDS011;4127;47.908;10.850;2022-08-27T14:23:47;4.72;;;3.90;;
8171;SDS011;4127;47.908;10.850;2022-08-27T14:26:14;4.10;;;3.60;;
8171;SDS011;4127;47.908;10.850;2022-08-27T14:28:42;4.00;;;3.70;;
8171;SDS011;4127;47.908;10.850;2022-08-27T14:31:10;5.85;;;5.30;;
8171;SDS011;4127;47.908;10.850;2022-08-27T14:33:38;7.03;;;6.40;;
8171;SDS011;4127;47.908;10.850;2022-08-27T14:36:05;7.20;;;6.50;;
8171;SDS011;4127;47.908;10.850;2022-08-27T14:38:34;7.10;;;6.50;;
8171;SDS011;4127;47.908;10.850;2022-08-27T14:41:06;6.43;;;5.93;;
8171;SDS011;4127;47.908;10.850;2022-08-27T14:43:33;6.38;;;5.63;;
8171;SDS011;4127;47.908;10.850;2022-08-27T14:46:01;6.10;;;5.50;;
8171;SDS011;4127;47.908;10.850;2022-08-27T14:48:30;7.25;;;6.55;;
8171;SDS011;4127;47.908;10.850;2022-08-27T14:50:59;7.85;;;7.15;;
8171;SDS011;4127;47.908;10.850;2022-08-27T14:53:31;9.43;;;8.48;;
8171;SDS011;4127;47.908;10.850;2022-08-27T14:55:58;9.23;;;8.27;;
8171;SDS011;4127;47.908;10.850;2022-08-27T14:58:26;12.30;;;11.00;;
8171;SDS011;4127;47.908;10.850;2022-08-27T15:00:54;13.27;;;11.98;;
8171;SDS011;4127;47.908;10.850;2022-08-27T15:03:22;12.70;;;11.43;;
8171;SDS011;4127;47.908;10.850;2022-08-27T15:05:51;11.73;;;10.60;;
8171;SDS011;4127;47.908;10.850;2022-08-27T15:08:21;12.63;;;11.35;;
8171;SDS011;4127;47.908;10.850;2022-08-27T15:10:54;12.55;;;11.32;;
8171;SDS011;4127;47.908;10.850;2022-08-27T15:13:21;13.68;;;12.07;;
8171;SDS011;4127;47.908;10.850;2022-08-27T15:15:48;12.23;;;10.98;;
8171;SDS011;4127;47.908;10.850;2022-08-27T15:18:17;11.55;;;10.45;;
8171;SDS011;4127;47.908;10.850;2022-08-27T15:20:45;12.65;;;11.35;;
8171;SDS011;4127;47.908;10.850;2022-08-27T15:23:12;10.82;;;9.75;;
8171;SDS011;4127;47.908;10.850;2022-08-27T15:25:41;11.07;;;9.98;;
8171;SDS011;4127;47.908;10.850;2022-08-27T15:28:10;11.73;;;10.73;;
8171;SDS011;4127;47.908;10.850;2022-08-27T15:30:37;10.85;;;9.65;;
8171;SDS011;4127;47.908;10.850;2022-08-27T15:33:05;11.48;;;10.38;;
8171;SDS011;4127;47.908;10.850;2022-08-27T15:35:32;9.23;;;8.27;;
8171;SDS011;4127;47.908;10.850;2022-08-27T15:37:59;9.60;;;8.65;;
8171;SDS011;4127;47.908;10.850;2022-08-27T15:40:27;9.35;;;8.52;;
8171;SDS011;4127;47.908;10.850;2022-08-27T15:42:58;9.07;;;8.27;;
8171;SDS011;4127;47.908;10.850;2022-08-27T15:45:30;8.75;;;7.95;;
8171;SDS011;4127;47.908;10.850;2022-08-27T15:47:58;8.20;;;7.40;;
8171;SDS011;4127;47.908;10.850;2022-08-27T15:50:25;9.18;;;8.27;;
8171;SDS011;4127;47.908;10.850;2022-08-27T15:52:55;9.18;;;8.27;;
8171;SDS011;4127;47.908;10.850;2022-08-27T15:55:30;9.15;;;8.25;;
8171;SDS011;4127;47.908;10.850;2022-08-27T15:57:59;9.80;;;8.90;;
8171;SDS011;4127;47.908;10.850;2022-08-27T16:00:27;8.98;;;8.13;;
8171;SDS011;4127;47.908;10.850;2022-08-27T16:02:55;9.13;;;8.27;;
8171;SDS011;4127;47.908;10.850;2022-08-27T16:05:22;8.63;;;7.82;;
8171;SDS011;4127;47.908;10.850;2022-08-27T16:07:51;8.25;;;7.45;;
8171;SDS011;4127;47.908;10.850;2022-08-27T16:10:17;8.93;;;8.03;;
8171;SDS011;4127;47.908;10.850;2022-08-27T16:12:44;8.63;;;7.20;;
8171;SDS011;4127;47.908;10.850;2022-08-27T16:15:11;8.07;;;7.35;;
8171;SDS011;4127;47.908;10.850;2022-08-27T16:17:39;7.65;;;6.97;;
8171;SDS011;4127;47.908;10.850;2022-08-27T16:20:07;8.40;;;7.60;;
8171;SDS011;4127;47.908;10.850;2022-08-27T16:22:36;7.15;;;6.55;;
8171;SDS011;4127;47.908;10.850;2022-08-27T16:25:04;7.50;;;6.85;;
8171;SDS011;4127;47.908;10.850;2022-08-27T16:27:31;7.18;;;6.57;;
8171;SDS011;4127;47.908;10.850;2022-08-27T16:29:58;7.55;;;6.85;;
8171;SDS011;4127;47.908;10.850;2022-08-27T16:32:25;7.70;;;6.95;;
8171;SDS011;4127;47.908;10.850;2022-08-27T16:34:56;6.68;;;6.07;;
8171;SDS011;4127;47.908;10.850;2022-08-27T16:37:23;6.97;;;6.38;;
8171;SDS011;4127;47.908;10.850;2022-08-27T16:39:50;8.48;;;7.68;;
8171;SDS011;4127;47.908;10.850;2022-08-27T16:42:17;6.78;;;6.13;;
8171;SDS011;4127;47.908;10.850;2022-08-27T16:44:44;6.95;;;6.35;;
8171;SDS011;4127;47.908;10.850;2022-08-27T16:47:11;7.00;;;6.40;;
8171;SDS011;4127;47.908;10.850;2022-08-27T16:49:38;6.75;;;6.03;;
8171;SDS011;4127;47.908;10.850;2022-08-27T16:52:23;6.43;;;5.93;;